Providence, Rhode Island
Traffic Map
Current Weather Conditions
Providence, Rhode Island
Scattered Clouds
Scattered Clouds
22°
Feels Like: 22°
Wind Chill: 22° Ceiling: Unl
Heat Index: 22° Visibility: 10mi
Dew Point: 18° Wind: 5mph
Humidity: 78% Direction: 330° (NNW)
Pressure: 29.99in Gusts: 0mph
Raw Report DataKPVD 301051Z 33004KT 10SM SCT250 22/18 A2999 RMK AO2 SLP155 T02220183
Traffic Incident Summary
Active as of:
Severity:
Category:
InformationThere was an issue retrieving the traffic information for this location. Please try a different location or try again shortly.
Advertisements
Track Severe Weather on mobile